Time;durP1;ratioP1;P1;durP2;ratioP2;P2;SDS_P1;SDS_P2;PMS_P1;PMS_P2;Temp;Humidity;BMP_temperature;BMP_pressure;BME280_temperature;BME280_humidity;BME280_pressure;Samples;Min_cycle;Max_cycle;Signal;HPM_P1;HPM_P2
2022/09/08 00:00:41;;;;;;;14.13;12.82;;;;;;;;;;4989443;28;20450;-62
2022/09/08 00:03:09;;;;;;;15.02;13.52;;;;;;;;;;4986328;28;20034;-62
2022/09/08 00:05:38;;;;;;;15.60;14.07;;;;;;;;;;4987841;28;20076;-62
2022/09/08 00:08:03;;;;;;;15.65;14.15;;;;;;;;;;4988710;28;20030;-63
2022/09/08 00:10:30;;;;;;;17.05;13.85;;;;;;;;;;5020028;28;20037;-63
2022/09/08 00:12:55;;;;;;;16.67;14.63;;;;;;;;;;4987818;28;20042;-63
2022/09/08 00:15:20;;;;;;;14.60;13.30;;;;;;;;;;4988668;28;20576;-62
2022/09/08 00:17:46;;;;;;;14.88;13.48;;;;;;;;;;4992058;28;20042;-62
2022/09/08 00:20:12;;;;;;;15.05;13.63;;;;;;;;;;4989339;28;20028;-62
2022/09/08 00:22:37;;;;;;;15.75;14.25;;;;;;;;;;4987036;28;20121;-61
2022/09/08 00:25:03;;;;;;;16.10;13.60;;;;;;;;;;4991460;28;20037;-61
2022/09/08 00:27:28;;;;;;;15.35;13.73;;;;;;;;;;4991907;28;20547;-62
2022/09/08 00:29:53;;;;;;;14.85;13.48;;;;;;;;;;4992339;28;20023;-61
2022/09/08 00:32:19;;;;;;;14.38;13.18;;;;;;;;;;4988988;28;20023;-62
2022/09/08 00:34:44;;;;;;;14.38;13.02;;;;;;;;;;4987830;28;20548;-62
2022/09/08 00:37:09;;;;;;;15.07;13.50;;;;;;;;;;4988114;28;20384;-62
2022/09/08 00:39:35;;;;;;;14.35;12.95;;;;;;;;;;4988605;28;20109;-61
2022/09/08 00:42:00;;;;;;;14.20;12.75;;;;;;;;;;4991482;28;20041;-61
2022/09/08 00:44:38;;;;;;;14.27;12.98;;;;;;;;;;4988420;28;20031;-62
2022/09/08 00:47:06;;;;;;;15.60;14.00;;;;;;;;;;4986238;28;20481;-61
2022/09/08 00:49:32;;;;;;;15.23;13.32;;;;;;;;;;4988166;28;20040;-61
2022/09/08 00:52:00;;;;;;;15.55;13.32;;;;;;;;;;4988306;28;20034;-61
2022/09/08 00:54:25;;;;;;;13.10;11.85;;;;;;;;;;4986264;28;20576;-62
2022/09/08 00:56:51;;;;;;;14.32;12.93;;;;;;;;;;4992892;28;20548;-61
2022/09/08 00:59:18;;;;;;;15.43;13.82;;;;;;;;;;4988377;28;20027;-64
2022/09/08 01:01:43;;;;;;;15.85;13.32;;;;;;;;;;4987399;28;20221;-61
2022/09/08 01:04:09;;;;;;;13.48;12.23;;;;;;;;;;4988500;28;20069;-62
2022/09/08 01:15:02;;;;;;;16.92;13.80;;;;;;;;;;4990875;28;20143;-62
2022/09/08 01:17:29;;;;;;;14.10;12.70;;;;;;;;;;4988150;28;20149;-62
2022/09/08 01:19:56;;;;;;;14.50;12.63;;;;;;;;;;4988061;28;20553;-62
2022/09/08 01:22:39;;;;;;;14.65;12.80;;;;;;;;;;4988186;28;20034;-62
2022/09/08 01:25:13;;;;;;;13.98;12.45;;;;;;;;;;4990682;28;20376;-62
2022/09/08 01:27:39;;;;;;;17.55;13.63;;;;;;;;;;4990377;28;20526;-62
2022/09/08 01:30:06;;;;;;;14.40;13.00;;;;;;;;;;4992366;28;20026;-62
2022/09/08 01:32:33;;;;;;;15.70;14.10;;;;;;;;;;5026692;28;20428;-62
2022/09/08 01:34:59;;;;;;;17.73;13.75;;;;;;;;;;4993855;28;20053;-62
2022/09/08 01:37:24;;;;;;;16.58;14.85;;;;;;;;;;4994604;28;20480;-61
2022/09/08 01:39:49;;;;;;;15.13;13.52;;;;;;;;;;4991763;28;20756;-62
2022/09/08 01:42:15;;;;;;;15.18;13.60;;;;;;;;;;5001173;28;20340;-61
2022/09/08 01:44:40;;;;;;;16.15;14.43;;;;;;;;;;4994481;28;20027;-61
2022/09/08 01:47:05;;;;;;;16.10;12.95;;;;;;;;;;4992835;28;20109;-62
2022/09/08 01:49:30;;;;;;;14.70;13.30;;;;;;;;;;4994094;28;20505;-62
2022/09/08 01:51:56;;;;;;;14.77;13.38;;;;;;;;;;4994659;28;20034;-62
2022/09/08 01:54:21;;;;;;;14.77;13.02;;;;;;;;;;4993789;28;20049;-63
2022/09/08 01:56:46;;;;;;;16.10;13.20;;;;;;;;;;4993340;28;20022;-62
2022/09/08 01:59:11;;;;;;;17.08;12.80;;;;;;;;;;4994795;28;20030;-64
2022/09/08 02:01:37;;;;;;;14.52;13.00;;;;;;;;;;4994124;28;20571;-62
2022/09/08 02:04:02;;;;;;;15.40;13.90;;;;;;;;;;4993653;28;20027;-64
2022/09/08 02:06:28;;;;;;;13.50;12.10;;;;;;;;;;4991944;28;20030;-63
2022/09/08 02:08:53;;;;;;;14.85;13.35;;;;;;;;;;5004689;28;20303;-64
2022/09/08 02:11:19;;;;;;;14.50;13.00;;;;;;;;;;4991203;28;20528;-63
2022/09/08 02:13:44;;;;;;;13.82;12.52;;;;;;;;;;4995205;28;20084;-64
2022/09/08 02:16:11;;;;;;;14.30;13.00;;;;;;;;;;4991099;28;20101;-63
2022/09/08 02:18:36;;;;;;;13.93;12.52;;;;;;;;;;4989448;28;20030;-63
2022/09/08 02:21:06;;;;;;;14.07;12.82;;;;;;;;;;4991896;28;20033;-63
2022/09/08 02:23:32;;;;;;;14.73;12.93;;;;;;;;;;4990241;28;20141;-63
2022/09/08 02:25:57;;;;;;;14.45;12.98;;;;;;;;;;4990885;28;20030;-63
2022/09/08 02:28:23;;;;;;;14.38;11.95;;;;;;;;;;4992664;28;20062;-61
2022/09/08 02:30:48;;;;;;;13.45;12.05;;;;;;;;;;4989618;28;20101;-64
2022/09/08 02:33:15;;;;;;;15.75;12.90;;;;;;;;;;4989418;28;20037;-63
2022/09/08 02:35:41;;;;;;;15.23;11.90;;;;;;;;;;4989950;28;20038;-62
2022/09/08 02:38:06;;;;;;;13.68;12.02;;;;;;;;;;4991801;28;20065;-63
2022/09/08 02:40:31;;;;;;;12.48;11.32;;;;;;;;;;4992945;28;20393;-63
2022/09/08 02:42:56;;;;;;;13.82;12.43;;;;;;;;;;4993459;28;20030;-64
2022/09/08 02:45:22;;;;;;;14.95;12.48;;;;;;;;;;4993983;28;20552;-62
2022/09/08 02:47:47;;;;;;;14.23;12.77;;;;;;;;;;4993848;28;20030;-63
2022/09/08 02:50:12;;;;;;;12.80;11.35;;;;;;;;;;4994569;28;20026;-64
2022/09/08 02:52:37;;;;;;;13.48;12.20;;;;;;;;;;4990505;28;20038;-64
2022/09/08 02:55:03;;;;;;;13.95;12.65;;;;;;;;;;4989274;28;20022;-63
2022/09/08 02:57:28;;;;;;;14.85;12.43;;;;;;;;;;4992793;28;20575;-63
2022/09/08 02:59:53;;;;;;;14.07;12.68;;;;;;;;;;4993355;28;20045;-63
2022/09/08 03:02:18;;;;;;;13.50;12.15;;;;;;;;;;4992956;28;20075;-62
2022/09/08 03:04:44;;;;;;;12.43;11.15;;;;;;;;;;4992293;28;20436;-63
2022/09/08 03:07:10;;;;;;;12.95;11.57;;;;;;;;;;4992474;28;20030;-63
2022/09/08 03:09:36;;;;;;;14.32;12.82;;;;;;;;;;4993438;28;20034;-63
2022/09/08 03:12:01;;;;;;;12.82;11.52;;;;;;;;;;4992859;28;20030;-63
2022/09/08 03:14:26;;;;;;;12.20;11.00;;;;;;;;;;4993558;28;20045;-63
2022/09/08 03:16:51;;;;;;;14.35;12.90;;;;;;;;;;4993002;28;20089;-63
2022/09/08 03:19:17;;;;;;;12.82;11.45;;;;;;;;;;4993090;28;20030;-63
2022/09/08 03:21:42;;;;;;;16.88;12.55;;;;;;;;;;4997149;28;20500;-63
2022/09/08 03:24:07;;;;;;;13.18;11.73;;;;;;;;;;4993018;28;20577;-63
2022/09/08 03:26:32;;;;;;;15.43;13.02;;;;;;;;;;4993589;28;20058;-63
2022/09/08 03:28:58;;;;;;;13.52;12.15;;;;;;;;;;4992967;28;20053;-64
2022/09/08 03:31:23;;;;;;;13.20;11.80;;;;;;;;;;4993534;28;20480;-63
2022/09/08 03:33:49;;;;;;;15.52;12.52;;;;;;;;;;4992819;28;20530;-63
2022/09/08 03:36:15;;;;;;;13.63;12.00;;;;;;;;;;4988294;28;20420;-63
2022/09/08 03:38:40;;;;;;;15.30;11.90;;;;;;;;;;4988273;28;20038;-62
2022/09/08 03:41:11;;;;;;;13.25;12.00;;;;;;;;;;4993153;28;20050;-62
2022/09/08 03:43:36;;;;;;;12.60;11.20;;;;;;;;;;4990529;28;20139;-62
2022/09/08 03:46:06;;;;;;;13.20;11.85;;;;;;;;;;4986850;28;20152;-62
2022/09/08 03:48:32;;;;;;;13.57;12.00;;;;;;;;;;4987635;28;20026;-62
2022/09/08 03:51:06;;;;;;;13.18;11.88;;;;;;;;;;4991746;28;20026;-62
2022/09/08 03:53:31;;;;;;;13.30;12.07;;;;;;;;;;4992260;28;20030;-62
2022/09/08 03:55:57;;;;;;;12.63;11.32;;;;;;;;;;4990361;28;20833;-62
2022/09/08 03:58:22;;;;;;;12.02;10.93;;;;;;;;;;4988618;28;20532;-62
2022/09/08 04:00:49;;;;;;;12.32;11.13;;;;;;;;;;4992626;28;20540;-62
2022/09/08 04:03:14;;;;;;;13.82;12.38;;;;;;;;;;4987072;28;20132;-62
2022/09/08 04:05:39;;;;;;;15.10;11.68;;;;;;;;;;4989931;28;20034;-62
2022/09/08 04:08:05;;;;;;;13.50;12.20;;;;;;;;;;4989383;28;20528;-62
2022/09/08 04:10:30;;;;;;;13.52;11.68;;;;;;;;;;4988098;28;20080;-62
2022/09/08 04:12:55;;;;;;;14.07;11.70;;;;;;;;;;4992995;28;20538;-63
2022/09/08 04:15:20;;;;;;;15.30;11.43;;;;;;;;;;4991887;28;20504;-63
2022/09/08 04:17:46;;;;;;;13.35;11.25;;;;;;;;;;4991364;28;20119;-62
2022/09/08 04:20:13;;;;;;;14.32;10.63;;;;;;;;;;4992382;28;20026;-62
2022/09/08 04:22:38;;;;;;;12.77;10.88;;;;;;;;;;4992254;28;20030;-62
2022/09/08 04:25:04;;;;;;;11.80;10.68;;;;;;;;;;4987838;28;20574;-62
2022/09/08 04:27:29;;;;;;;12.73;11.43;;;;;;;;;;4987025;28;20128;-63
2022/09/08 04:29:54;;;;;;;11.77;10.57;;;;;;;;;;4991819;28;20034;-63
2022/09/08 04:32:19;;;;;;;12.30;11.10;;;;;;;;;;4985873;28;20529;-62
2022/09/08 04:34:47;;;;;;;12.30;11.15;;;;;;;;;;4988017;28;20050;-62
2022/09/08 04:37:12;;;;;;;12.13;10.82;;;;;;;;;;4991063;28;20038;-62
2022/09/08 04:39:37;;;;;;;12.23;11.02;;;;;;;;;;4991590;28;20421;-61
2022/09/08 04:42:03;;;;;;;12.52;11.32;;;;;;;;;;4991159;28;20105;-62
2022/09/08 04:44:28;;;;;;;10.55;9.52;;;;;;;;;;4991716;28;20499;-63
2022/09/08 04:46:53;;;;;;;11.77;10.68;;;;;;;;;;4986272;28;20132;-60
2022/09/08 04:49:18;;;;;;;12.13;11.02;;;;;;;;;;4987517;28;20393;-64
2022/09/08 04:51:44;;;;;;;13.15;11.85;;;;;;;;;;4992325;28;20036;-65
2022/09/08 04:54:09;;;;;;;12.82;11.55;;;;;;;;;;4990300;28;20468;-64
2022/09/08 04:56:35;;;;;;;11.98;10.77;;;;;;;;;;4992215;28;20022;-65
2022/09/08 04:59:01;;;;;;;12.38;10.07;;;;;;;;;;4991210;28;20018;-65
2022/09/08 05:01:27;;;;;;;11.25;10.20;;;;;;;;;;4991577;28;20061;-66
2022/09/08 05:03:54;;;;;;;10.88;9.73;;;;;;;;;;4991842;28;20066;-63
2022/09/08 05:06:20;;;;;;;11.10;10.05;;;;;;;;;;4990579;28;20018;-61
2022/09/08 05:08:46;;;;;;;11.82;9.45;;;;;;;;;;4990673;28;20037;-62
2022/09/08 05:11:12;;;;;;;12.18;9.82;;;;;;;;;;4993676;28;20088;-66
2022/09/08 05:13:38;;;;;;;12.55;10.13;;;;;;;;;;4994297;28;20022;-65
2022/09/08 05:16:04;;;;;;;13.02;9.80;;;;;;;;;;4996008;28;20637;-68
2022/09/08 05:18:30;;;;;;;11.02;9.93;;;;;;;;;;4990522;28;20032;-67
2022/09/08 05:20:55;;;;;;;9.82;8.63;;;;;;;;;;4990230;28;20025;-65
2022/09/08 05:23:21;;;;;;;10.73;9.73;;;;;;;;;;4989193;28;20161;-66
2022/09/08 05:25:53;;;;;;;9.75;8.82;;;;;;;;;;4991159;28;20030;-65
2022/09/08 05:28:18;;;;;;;9.68;8.80;;;;;;;;;;4988118;28;20667;-66
2022/09/08 05:30:44;;;;;;;9.30;8.40;;;;;;;;;;4989704;28;20027;-66
2022/09/08 05:33:09;;;;;;;11.70;10.52;;;;;;;;;;4993271;28;20057;-66
2022/09/08 05:35:35;;;;;;;10.32;9.18;;;;;;;;;;4994449;28;20033;-66
2022/09/08 05:38:00;;;;;;;10.90;9.77;;;;;;;;;;4990735;28;20031;-65
2022/09/08 05:40:26;;;;;;;11.00;9.90;;;;;;;;;;4991693;28;20026;-66
2022/09/08 05:42:51;;;;;;;11.25;10.23;;;;;;;;;;4995641;28;20026;-65
2022/09/08 05:45:16;;;;;;;14.25;10.20;;;;;;;;;;4994210;28;20038;-66
2022/09/08 05:47:41;;;;;;;9.90;8.60;;;;;;;;;;4994757;28;20030;-65
2022/09/08 05:50:07;;;;;;;15.77;10.18;;;;;;;;;;4994275;28;20031;-65
2022/09/08 05:52:32;;;;;;;10.57;9.30;;;;;;;;;;4992681;28;20041;-66
2022/09/08 05:54:58;;;;;;;9.90;8.90;;;;;;;;;;4990595;28;20499;-66
2022/09/08 05:57:23;;;;;;;12.70;9.35;;;;;;;;;;4994730;28;20026;-66
2022/09/08 05:59:48;;;;;;;11.60;9.20;;;;;;;;;;4993666;28;20038;-65
2022/09/08 06:02:14;;;;;;;12.27;10.10;;;;;;;;;;5026606;28;20041;-66
2022/09/08 06:04:39;;;;;;;14.77;9.35;;;;;;;;;;4994058;28;20026;-65
2022/09/08 06:07:04;;;;;;;11.15;9.88;;;;;;;;;;4994981;28;20065;-65
2022/09/08 06:09:30;;;;;;;12.65;9.98;;;;;;;;;;4990289;28;20576;-66
2022/09/08 06:11:55;;;;;;;12.38;10.45;;;;;;;;;;4992369;28;20507;-65
2022/09/08 06:14:20;;;;;;;10.80;9.70;;;;;;;;;;4991569;28;20471;-66
2022/09/08 06:16:45;;;;;;;12.57;11.27;;;;;;;;;;4990871;28;20026;-65
2022/09/08 06:19:11;;;;;;;12.82;10.38;;;;;;;;;;4992265;28;20026;-65
2022/09/08 06:21:36;;;;;;;11.82;9.77;;;;;;;;;;4990714;28;20454;-70
2022/09/08 06:24:03;;;;;;;14.00;10.02;;;;;;;;;;4996499;28;20129;-65
2022/09/08 06:26:47;;;;;;;13.00;11.68;;;;;;;;;;4993300;28;20089;-65
2022/09/08 06:29:25;;;;;;;11.85;10.38;;;;;;;;;;4993946;28;20030;-65
2022/09/08 06:31:50;;;;;;;11.25;10.23;;;;;;;;;;4994079;28;20037;-64
2022/09/08 06:34:19;;;;;;;12.80;11.60;;;;;;;;;;4992362;28;20034;-65
2022/09/08 06:36:52;;;;;;;12.30;11.20;;;;;;;;;;4991385;28;20026;-65
2022/09/08 06:39:20;;;;;;;12.55;11.38;;;;;;;;;;4990339;28;20034;-65
2022/09/08 06:41:48;;;;;;;12.10;10.98;;;;;;;;;;4993939;28;20022;-61
2022/09/08 06:44:26;;;;;;;12.70;11.60;;;;;;;;;;4991517;28;20404;-64
2022/09/08 06:46:54;;;;;;;11.98;10.88;;;;;;;;;;4990102;28;20025;-69
2022/09/08 06:49:19;;;;;;;12.95;11.43;;;;;;;;;;4991135;28;20034;-69
2022/09/08 06:51:51;;;;;;;12.73;11.57;;;;;;;;;;4995756;28;20423;-70
2022/09/08 06:54:31;;;;;;;11.75;10.55;;;;;;;;;;4992807;28;20492;-69
2022/09/08 06:56:57;;;;;;;13.05;11.70;;;;;;;;;;4994812;28;20049;-69
2022/09/08 06:59:25;;;;;;;11.13;10.05;;;;;;;;;;4991067;28;20034;-72
2022/09/08 07:02:01;;;;;;;10.88;9.98;;;;;;;;;;4990352;28;20040;-71
2022/09/08 07:04:41;;;;;;;11.65;10.52;;;;;;;;;;4995005;28;20037;-70
2022/09/08 07:07:25;;;;;;;10.75;9.38;;;;;;;;;;4993741;28;20093;-70
2022/09/08 07:09:51;;;;;;;13.00;10.13;;;;;;;;;;4994192;28;20539;-70
2022/09/08 07:12:28;;;;;;;10.10;8.98;;;;;;;;;;4991861;28;20026;-65
2022/09/08 07:15:02;;;;;;;9.70;8.80;;;;;;;;;;4997418;28;20476;-66
2022/09/08 07:17:33;;;;;;;11.23;8.73;;;;;;;;;;4991917;28;20034;-66
2022/09/08 07:19:59;;;;;;;10.68;7.93;;;;;;;;;;4989579;28;20037;-66
2022/09/08 07:22:43;;;;;;;9.65;8.43;;;;;;;;;;4993996;28;20096;-66
2022/09/08 07:25:15;;;;;;;12.63;8.52;;;;;;;;;;4991130;28;20502;-66
2022/09/08 07:27:41;;;;;;;8.27;7.43;;;;;;;;;;4988381;28;20050;-66
2022/09/08 07:30:11;;;;;;;8.63;7.75;;;;;;;;;;4990421;28;20029;-66
2022/09/08 07:32:37;;;;;;;10.07;8.35;;;;;;;;;;4989186;28;20196;-66
2022/09/08 07:35:05;;;;;;;12.70;7.50;;;;;;;;;;4990215;28;20666;-67
2022/09/08 07:37:45;;;;;;;14.57;8.00;;;;;;;;;;4988949;28;20038;-66
2022/09/08 07:40:19;;;;;;;8.63;7.47;;;;;;;;;;4989817;28;20026;-66
2022/09/08 07:43:04;;;;;;;9.00;7.80;;;;;;;;;;4993559;28;20037;-66
2022/09/08 07:45:53;;;;;;;10.15;6.65;;;;;;;;;;4993950;28;20112;-68
2022/09/08 07:48:18;;;;;;;8.13;7.43;;;;;;;;;;4987578;28;20038;-64
2022/09/08 07:50:56;;;;;;;8.93;7.25;;;;;;;;;;4991861;28;20022;-64
2022/09/08 07:53:34;;;;;;;7.70;6.95;;;;;;;;;;4988275;28;20864;-66
2022/09/08 07:56:12;;;;;;;7.45;6.80;;;;;;;;;;4989689;28;20579;-65
2022/09/08 07:58:50;;;;;;;13.95;7.45;;;;;;;;;;4988811;28;20059;-66
2022/09/08 08:01:18;;;;;;;7.50;6.13;;;;;;;;;;4990114;28;20024;-65
2022/09/08 08:04:02;;;;;;;7.43;6.70;;;;;;;;;;4993295;28;20362;-65
2022/09/08 08:06:27;;;;;;;9.75;6.38;;;;;;;;;;4989627;28;20053;-66
2022/09/08 08:08:59;;;;;;;8.15;6.38;;;;;;;;;;4988659;28;20140;-65
2022/09/08 08:11:24;;;;;;;7.07;6.28;;;;;;;;;;4991766;28;20692;-67
2022/09/08 08:14:01;;;;;;;7.30;6.05;;;;;;;;;;4989596;28;20022;-67
2022/09/08 08:16:43;;;;;;;13.65;5.88;;;;;;;;;;4990178;28;20034;-66
2022/09/08 08:19:08;;;;;;;6.20;5.60;;;;;;;;;;4988883;28;20596;-66
2022/09/08 08:22:06;;;;;;;6.33;5.67;;;;;;;;;;4989494;28;20057;-66
2022/09/08 08:24:50;;;;;;;10.05;5.82;;;;;;;;;;4991894;28;20428;-66
2022/09/08 08:27:28;;;;;;;5.65;5.05;;;;;;;;;;4992826;28;20054;-66
2022/09/08 08:29:59;;;;;;;6.97;5.88;;;;;;;;;;4992261;28;20033;-65
2022/09/08 08:32:45;;;;;;;6.07;5.32;;;;;;;;;;4988615;28;20034;-62
2022/09/08 08:35:13;;;;;;;6.03;5.45;;;;;;;;;;4990008;28;20049;-64
2022/09/08 08:37:40;;;;;;;8.65;6.65;;;;;;;;;;4992147;28;20037;-64
2022/09/08 08:40:16;;;;;;;6.68;5.50;;;;;;;;;;4999692;28;20076;-64
2022/09/08 08:42:51;;;;;;;6.22;5.63;;;;;;;;;;4995028;28;20149;-62
2022/09/08 08:45:28;;;;;;;11.45;7.15;;;;;;;;;;4992440;28;20197;-61
2022/09/08 08:48:16;;;;;;;5.68;5.28;;;;;;;;;;4994800;28;20026;-61
2022/09/08 08:51:02;;;;;;;6.80;6.00;;;;;;;;;;4942343;28;20039;-61
2022/09/08 08:53:36;;;;;;;9.48;6.22;;;;;;;;;;4953769;28;20066;-64
2022/09/08 08:56:02;;;;;;;5.15;4.82;;;;;;;;;;4955334;28;20049;-63
2022/09/08 08:58:45;;;;;;;8.13;5.80;;;;;;;;;;4955914;28;20523;-63
2022/09/08 09:01:20;;;;;;;11.55;6.22;;;;;;;;;;4958315;28;20039;-64
2022/09/08 09:03:51;;;;;;;7.38;5.47;;;;;;;;;;4958782;28;20031;-66
2022/09/08 09:06:37;;;;;;;6.07;5.47;;;;;;;;;;4958024;28;20042;-64
2022/09/08 09:09:15;;;;;;;6.35;5.28;;;;;;;;;;4956252;28;20106;-66
2022/09/08 09:11:59;;;;;;;9.48;5.95;;;;;;;;;;4957723;28;20038;-66
2022/09/08 09:14:48;;;;;;;13.05;6.25;;;;;;;;;;4959332;28;20069;-65
2022/09/08 09:17:19;;;;;;;5.72;5.22;;;;;;;;;;4959710;28;20042;-66
2022/09/08 09:19:56;;;;;;;7.38;5.65;;;;;;;;;;4958139;28;20556;-64
2022/09/08 09:22:27;;;;;;;7.32;5.50;;;;;;;;;;4955789;28;20038;-67
2022/09/08 09:25:11;;;;;;;6.47;5.40;;;;;;;;;;4957647;28;20037;-65
2022/09/08 09:27:40;;;;;;;7.90;5.32;;;;;;;;;;4974718;28;20073;-66
2022/09/08 09:30:12;;;;;;;7.50;6.10;;;;;;;;;;4996865;28;20606;-65
2022/09/08 09:32:47;;;;;;;5.50;5.00;;;;;;;;;;4996161;28;20038;-66
2022/09/08 09:35:18;;;;;;;6.07;5.07;;;;;;;;;;4995441;28;20124;-66
2022/09/08 09:37:59;;;;;;;7.63;5.28;;;;;;;;;;4995917;28;20452;-67
2022/09/08 09:40:27;;;;;;;6.53;5.95;;;;;;;;;;4993866;28;20101;-63
2022/09/08 09:43:04;;;;;;;7.82;4.90;;;;;;;;;;4989561;28;20477;-62
2022/09/08 09:45:42;;;;;;;5.82;5.07;;;;;;;;;;4993443;28;20088;-70
2022/09/08 09:48:10;;;;;;;7.07;5.35;;;;;;;;;;4994740;28;20392;-62
2022/09/08 09:50:54;;;;;;;7.80;5.78;;;;;;;;;;4994038;28;20049;-62
2022/09/08 09:53:31;;;;;;;5.90;5.38;;;;;;;;;;4990297;28;20096;-62
2022/09/08 09:56:00;;;;;;;6.53;5.03;;;;;;;;;;4990646;28;20022;-61
2022/09/08 09:58:26;;;;;;;7.20;6.50;;;;;;;;;;4993240;28;20030;-60
2022/09/08 10:01:12;;;;;;;5.75;5.20;;;;;;;;;;4991195;28;20472;-64
2022/09/08 10:03:37;;;;;;;9.43;5.60;;;;;;;;;;4972460;28;20096;-63
2022/09/08 10:06:22;;;;;;;7.07;5.38;;;;;;;;;;4992629;28;20030;-63
2022/09/08 10:08:47;;;;;;;;;;;;;;;;;;4991084;28;20049;-64
2022/09/08 10:11:12;;;;;;;;;;;;;;;;;;4991046;28;19949;-63
2022/09/08 10:13:43;;;;;;;10.13;5.50;;;;;;;;;;4993071;28;20052;-62
2022/09/08 10:16:27;;;;;;;8.82;5.85;;;;;;;;;;4992531;28;20280;-62
2022/09/08 10:18:58;;;;;;;6.20;4.95;;;;;;;;;;5004760;28;20026;-64
2022/09/08 10:21:23;;;;;;;9.82;6.30;;;;;;;;;;4990494;28;20018;-63
2022/09/08 10:24:04;;;;;;;9.37;5.90;;;;;;;;;;4988145;28;20105;-62
2022/09/08 10:26:29;;;;;;;6.20;5.40;;;;;;;;;;4990387;28;20289;-62
2022/09/08 10:29:03;;;;;;;8.13;5.43;;;;;;;;;;4990143;28;20030;-62
2022/09/08 10:31:47;;;;;;;6.72;6.18;;;;;;;;;;4988416;28;20335;-64
2022/09/08 10:34:12;;;;;;;10.27;6.32;;;;;;;;;;4989142;28;20044;-63
2022/09/08 10:36:46;;;;;;;7.20;6.70;;;;;;;;;;4990756;28;20026;-61
2022/09/08 10:39:41;;;;;;;12.35;6.20;;;;;;;;;;4992427;28;20036;-62
2022/09/08 10:42:12;;;;;;;6.57;5.38;;;;;;;;;;4937435;29;20039;-62
2022/09/08 10:44:37;;;;;;;7.30;6.35;;;;;;;;;;4939116;29;20027;-61
2022/09/08 10:47:20;;;;;;;6.23;5.63;;;;;;;;;;4939686;29;20046;-63
2022/09/08 10:49:55;;;;;;;7.30;6.40;;;;;;;;;;4935693;29;20876;-62
2022/09/08 10:52:20;;;;;;;7.70;6.25;;;;;;;;;;4933395;29;20054;-65
2022/09/08 10:55:03;;;;;;;5.87;5.43;;;;;;;;;;4937716;29;20130;-64
2022/09/08 10:57:41;;;;;;;6.18;5.65;;;;;;;;;;4936055;29;20266;-64
2022/09/08 11:00:06;;;;;;;7.00;6.32;;;;;;;;;;4918382;29;20031;-65
2022/09/08 11:02:35;;;;;;;6.75;6.15;;;;;;;;;;4934267;28;20071;-65
2022/09/08 11:05:01;;;;;;;8.93;5.70;;;;;;;;;;4936257;29;20039;-65
2022/09/08 11:07:35;;;;;;;5.97;5.47;;;;;;;;;;4934058;29;20035;-65
2022/09/08 11:10:23;;;;;;;5.85;5.20;;;;;;;;;;4935374;29;20027;-67
2022/09/08 11:12:51;;;;;;;5.85;5.35;;;;;;;;;;4934441;29;20035;-66
2022/09/08 11:15:49;;;;;;;7.95;7.15;;;;;;;;;;4940365;29;20114;-65
2022/09/08 11:18:33;;;;;;;6.22;5.70;;;;;;;;;;4950007;28;20050;-65
2022/09/08 11:21:00;;;;;;;10.52;5.78;;;;;;;;;;4992267;28;20050;-64
2022/09/08 11:23:36;;;;;;;7.40;5.93;;;;;;;;;;4991095;28;20038;-65
2022/09/08 11:26:20;;;;;;;6.72;6.13;;;;;;;;;;4989486;28;20105;-66
2022/09/08 11:28:45;;;;;;;6.00;5.53;;;;;;;;;;4990560;28;20472;-65
2022/09/08 11:31:22;;;;;;;7.15;6.55;;;;;;;;;;4993215;28;20529;-63
2022/09/08 11:33:59;;;;;;;5.88;5.32;;;;;;;;;;4992576;28;20030;-63
2022/09/08 11:36:31;;;;;;;6.97;6.38;;;;;;;;;;4991611;28;20030;-63
2022/09/08 11:39:03;;;;;;;8.57;5.90;;;;;;;;;;4993154;28;20029;-63
2022/09/08 11:41:47;;;;;;;6.75;6.15;;;;;;;;;;4992388;28;20563;-59
2022/09/08 11:44:20;;;;;;;7.55;6.10;;;;;;;;;;4993574;28;20064;-67
2022/09/08 11:46:48;;;;;;;8.40;5.63;;;;;;;;;;5024029;28;20057;-66
2022/09/08 11:49:23;;;;;;;9.85;6.32;;;;;;;;;;4990730;28;20281;-66
2022/09/08 11:52:18;;;;;;;10.35;6.53;;;;;;;;;;4989746;28;20034;-66
2022/09/08 11:54:49;;;;;;;6.18;5.78;;;;;;;;;;4987925;28;20120;-68
2022/09/08 11:57:23;;;;;;;10.88;6.30;;;;;;;;;;4989335;28;20030;-62
2022/09/08 11:59:49;;;;;;;6.63;6.00;;;;;;;;;;4987326;28;20264;-66
2022/09/08 12:02:26;;;;;;;6.80;6.20;;;;;;;;;;4988967;28;20030;-66
2022/09/08 12:05:11;;;;;;;7.75;7.13;;;;;;;;;;4987110;28;20030;-65
2022/09/08 12:07:36;;;;;;;;;;;;;;;;;;4989798;28;20038;-65
2022/09/08 12:10:01;;;;;;;7.53;6.72;;;;;;;;;;4988647;28;19913;-68
2022/09/08 12:12:29;;;;;;;7.85;7.00;;;;;;;;;;4987029;28;20038;-67
2022/09/08 12:15:19;;;;;;;7.32;6.18;;;;;;;;;;4978054;28;20153;-67
2022/09/08 12:17:50;;;;;;;7.78;7.05;;;;;;;;;;4989302;28;21090;-68
2022/09/08 12:20:34;;;;;;;6.30;5.78;;;;;;;;;;4989039;28;20050;-67
2022/09/08 12:23:09;;;;;;;9.45;6.38;;;;;;;;;;4988488;28;20030;-68
2022/09/08 12:25:54;;;;;;;7.05;5.47;;;;;;;;;;4989359;28;20627;-67
2022/09/08 12:28:19;;;;;;;7.68;6.07;;;;;;;;;;4987490;28;20050;-68
2022/09/08 12:31:08;;;;;;;7.03;6.10;;;;;;;;;;4987337;28;20040;-68
2022/09/08 12:33:49;;;;;;;8.60;6.15;;;;;;;;;;4992799;28;20042;-66
2022/09/08 12:36:15;;;;;;;7.20;6.60;;;;;;;;;;4988143;28;20061;-69
2022/09/08 12:38:40;;;;;;;5.22;4.72;;;;;;;;;;4988990;28;20958;-69
2022/09/08 12:41:16;;;;;;;6.85;4.88;;;;;;;;;;4991109;28;20033;-69
2022/09/08 12:43:42;;;;;;;4.85;4.28;;;;;;;;;;4999736;28;20034;-61
2022/09/08 12:46:13;;;;;;;5.68;4.30;;;;;;;;;;4992791;28;20080;-66
2022/09/08 12:48:45;;;;;;;5.45;4.00;;;;;;;;;;4992006;28;20089;-68
2022/09/08 12:51:30;;;;;;;4.43;4.00;;;;;;;;;;4987915;28;20943;-68
2022/09/08 12:54:07;;;;;;;7.28;3.80;;;;;;;;;;4989937;28;20041;-67
2022/09/08 12:56:51;;;;;;;5.68;3.45;;;;;;;;;;4991650;28;20420;-68
2022/09/08 12:59:35;;;;;;;3.80;3.38;;;;;;;;;;4992678;28;20193;-70
2022/09/08 13:02:14;;;;;;;5.80;3.42;;;;;;;;;;4990295;28;20056;-60
2022/09/08 13:04:51;;;;;;;3.88;3.50;;;;;;;;;;4988621;28;20038;-66
2022/09/08 13:07:35;;;;;;;3.30;3.08;;;;;;;;;;4990702;28;20092;-64
2022/09/08 13:10:21;;;;;;;3.15;2.83;;;;;;;;;;4992265;28;20157;-69
2022/09/08 13:13:00;;;;;;;4.38;3.45;;;;;;;;;;4990309;28;20042;-67
2022/09/08 13:15:55;;;;;;;4.65;4.20;;;;;;;;;;4987539;28;20026;-65
2022/09/08 13:18:27;;;;;;;7.55;4.85;;;;;;;;;;4985371;28;20809;-61
2022/09/08 13:21:00;;;;;;;10.40;5.35;;;;;;;;;;4987399;28;20095;-62
2022/09/08 13:23:33;;;;;;;5.50;4.95;;;;;;;;;;4988571;28;20042;-62
2022/09/08 13:26:01;;;;;;;4.93;4.22;;;;;;;;;;4989553;28;20089;-62
2022/09/08 13:28:29;;;;;;;6.28;5.57;;;;;;;;;;4989887;28;20069;-63
2022/09/08 13:31:03;;;;;;;8.90;5.18;;;;;;;;;;4986870;28;20054;-63
2022/09/08 13:33:46;;;;;;;7.93;4.57;;;;;;;;;;4990322;28;20468;-63
2022/09/08 13:36:17;;;;;;;6.18;5.43;;;;;;;;;;4993207;28;20038;-63
2022/09/08 13:38:42;;;;;;;6.00;5.25;;;;;;;;;;4995263;28;20029;-62
2022/09/08 13:41:16;;;;;;;5.32;4.88;;;;;;;;;;4995223;28;20089;-62
2022/09/08 13:44:00;;;;;;;5.50;4.78;;;;;;;;;;4991505;28;20030;-62
2022/09/08 13:46:31;;;;;;;6.22;5.70;;;;;;;;;;4990285;28;20026;-62
2022/09/08 13:49:05;;;;;;;6.10;5.60;;;;;;;;;;4991136;28;20030;-62
2022/09/08 13:51:36;;;;;;;5.85;4.32;;;;;;;;;;4990909;28;20054;-60
2022/09/08 13:54:04;;;;;;;4.55;3.53;;;;;;;;;;4995119;28;20737;-60
2022/09/08 13:56:42;;;;;;;4.07;3.78;;;;;;;;;;4992751;28;20484;-60
2022/09/08 13:59:28;;;;;;;3.25;2.95;;;;;;;;;;4993276;28;20116;-60
2022/09/08 14:01:53;;;;;;;;;;;;;;;;;;4969768;28;20740;-60
2022/09/08 14:04:34;;;;;;;3.47;3.28;;;;;;;;;;4993640;28;20269;-61
2022/09/08 14:07:06;;;;;;;2.78;2.58;;;;;;;;;;4995013;28;20038;-61
2022/09/08 14:09:38;;;;;;;2.90;2.70;;;;;;;;;;4993589;28;20049;-61
2022/09/08 14:12:24;;;;;;;3.00;2.45;;;;;;;;;;4993923;28;20037;-61
2022/09/08 14:15:08;;;;;;;2.45;2.35;;;;;;;;;;4991120;28;20133;-61
2022/09/08 14:17:40;;;;;;;1.95;1.85;;;;;;;;;;4989478;28;20727;-60
2022/09/08 14:20:05;;;;;;;2.22;2.10;;;;;;;;;;4991463;28;20074;-60
2022/09/08 14:22:30;;;;;;;2.22;2.13;;;;;;;;;;4992635;28;20549;-60
2022/09/08 14:25:13;;;;;;;1.92;1.80;;;;;;;;;;4992289;28;20107;-61
2022/09/08 14:27:57;;;;;;;2.65;2.55;;;;;;;;;;4992584;28;20054;-61
2022/09/08 14:30:24;;;;;;;2.35;2.15;;;;;;;;;;4989707;28;20028;-61
2022/09/08 14:33:12;;;;;;;1.92;1.65;;;;;;;;;;4990866;28;20392;-61
2022/09/08 14:35:44;;;;;;;1.80;1.67;;;;;;;;;;4993497;28;20072;-61
2022/09/08 14:38:29;;;;;;;1.63;1.50;;;;;;;;;;4993907;28;20081;-61
2022/09/08 14:41:11;;;;;;;1.63;1.60;;;;;;;;;;4992866;28;20637;-61
2022/09/08 14:43:46;;;;;;;2.75;1.83;;;;;;;;;;5001567;28;20080;-61
2022/09/08 14:46:14;;;;;;;1.65;1.20;;;;;;;;;;4993875;28;20026;-61
2022/09/08 14:48:59;;;;;;;1.58;1.38;;;;;;;;;;4994085;28;20030;-60
2022/09/08 14:51:38;;;;;;;2.40;1.38;;;;;;;;;;4993926;28;20389;-61
2022/09/08 14:54:10;;;;;;;1.50;1.38;;;;;;;;;;4993792;28;20522;-61
2022/09/08 14:56:38;;;;;;;1.40;1.40;;;;;;;;;;4993252;28;20421;-63
2022/09/08 14:59:14;;;;;;;1.10;1.10;;;;;;;;;;4993000;28;20034;-64
2022/09/08 15:01:42;;;;;;;1.23;1.23;;;;;;;;;;4992642;28;20050;-64